sensor_id;sensor_type;location;lat;lon;timestamp;P1;durP1;ratioP1;P2;durP2;ratioP2
41687;SDS011;27371;42.686;23.362;2023-09-07T00:02:58;10.50;;;5.95;;
41687;SDS011;27371;42.686;23.362;2023-09-07T00:05:25;10.25;;;6.97;;
41687;SDS011;27371;42.686;23.362;2023-09-07T00:07:50;11.23;;;7.05;;
41687;SDS011;27371;42.686;23.362;2023-09-07T00:10:16;8.05;;;6.60;;
41687;SDS011;27371;42.686;23.362;2023-09-07T00:12:43;9.45;;;7.25;;
41687;SDS011;27371;42.686;23.362;2023-09-07T00:15:08;9.38;;;7.10;;
41687;SDS011;27371;42.686;23.362;2023-09-07T00:17:35;8.10;;;7.25;;
41687;SDS011;27371;42.686;23.362;2023-09-07T00:20:01;9.98;;;7.80;;
41687;SDS011;27371;42.686;23.362;2023-09-07T00:22:35;9.87;;;7.93;;
41687;SDS011;27371;42.686;23.362;2023-09-07T00:25:00;8.52;;;7.35;;
41687;SDS011;27371;42.686;23.362;2023-09-07T00:27:26;8.50;;;7.65;;
41687;SDS011;27371;42.686;23.362;2023-09-07T00:29:52;10.07;;;7.57;;
41687;SDS011;27371;42.686;23.362;2023-09-07T00:32:17;9.05;;;7.57;;
41687;SDS011;27371;42.686;23.362;2023-09-07T00:34:42;11.75;;;7.70;;
41687;SDS011;27371;42.686;23.362;2023-09-07T00:37:08;11.25;;;7.53;;
41687;SDS011;27371;42.686;23.362;2023-09-07T00:39:33;8.50;;;7.30;;
41687;SDS011;27371;42.686;23.362;2023-09-07T00:41:59;13.32;;;7.93;;
41687;SDS011;27371;42.686;23.362;2023-09-07T00:44:24;14.05;;;8.10;;
41687;SDS011;27371;42.686;23.362;2023-09-07T00:46:50;10.45;;;8.02;;
41687;SDS011;27371;42.686;23.362;2023-09-07T00:49:15;10.50;;;7.72;;
41687;SDS011;27371;42.686;23.362;2023-09-07T00:51:41;10.20;;;7.45;;
41687;SDS011;27371;42.686;23.362;2023-09-07T00:54:06;11.40;;;8.00;;
41687;SDS011;27371;42.686;23.362;2023-09-07T00:56:33;10.15;;;7.95;;
41687;SDS011;27371;42.686;23.362;2023-09-07T00:58:58;10.38;;;8.32;;
41687;SDS011;27371;42.686;23.362;2023-09-07T01:01:25;17.00;;;8.68;;
41687;SDS011;27371;42.686;23.362;2023-09-07T01:03:51;12.18;;;8.88;;
41687;SDS011;27371;42.686;23.362;2023-09-07T01:08:46;10.82;;;8.27;;
41687;SDS011;27371;42.686;23.362;2023-09-07T01:11:17;11.68;;;8.73;;
41687;SDS011;27371;42.686;23.362;2023-09-07T01:13:48;17.30;;;8.55;;
41687;SDS011;27371;42.686;23.362;2023-09-07T01:16:14;10.27;;;9.10;;
41687;SDS011;27371;42.686;23.362;2023-09-07T01:18:39;12.43;;;8.60;;
41687;SDS011;27371;42.686;23.362;2023-09-07T01:21:06;11.73;;;8.98;;
41687;SDS011;27371;42.686;23.362;2023-09-07T01:23:36;11.95;;;8.65;;
41687;SDS011;27371;42.686;23.362;2023-09-07T01:26:03;12.35;;;8.18;;
41687;SDS011;27371;42.686;23.362;2023-09-07T01:28:30;14.70;;;8.85;;
41687;SDS011;27371;42.686;23.362;2023-09-07T01:30:56;14.52;;;8.98;;
41687;SDS011;27371;42.686;23.362;2023-09-07T01:33:22;11.63;;;9.48;;
41687;SDS011;27371;42.686;23.362;2023-09-07T01:35:48;13.52;;;9.63;;
41687;SDS011;27371;42.686;23.362;2023-09-07T01:38:13;14.40;;;10.20;;
41687;SDS011;27371;42.686;23.362;2023-09-07T01:40:39;11.52;;;9.45;;
41687;SDS011;27371;42.686;23.362;2023-09-07T01:43:04;11.02;;;9.38;;
41687;SDS011;27371;42.686;23.362;2023-09-07T01:45:30;12.32;;;9.52;;
41687;SDS011;27371;42.686;23.362;2023-09-07T01:47:55;21.23;;;10.70;;
41687;SDS011;27371;42.686;23.362;2023-09-07T01:50:21;11.32;;;10.15;;
41687;SDS011;27371;42.686;23.362;2023-09-07T01:52:46;11.82;;;9.50;;
41687;SDS011;27371;42.686;23.362;2023-09-07T01:55:13;11.30;;;9.82;;
41687;SDS011;27371;42.686;23.362;2023-09-07T01:57:39;13.25;;;10.27;;
41687;SDS011;27371;42.686;23.362;2023-09-07T02:00:04;16.38;;;9.90;;
41687;SDS011;27371;42.686;23.362;2023-09-07T02:02:31;11.05;;;9.68;;
41687;SDS011;27371;42.686;23.362;2023-09-07T02:04:56;11.27;;;10.07;;
41687;SDS011;27371;42.686;23.362;2023-09-07T02:07:22;14.65;;;10.07;;
41687;SDS011;27371;42.686;23.362;2023-09-07T02:09:47;11.68;;;9.88;;
41687;SDS011;27371;42.686;23.362;2023-09-07T02:12:12;11.35;;;10.07;;
41687;SDS011;27371;42.686;23.362;2023-09-07T02:14:38;14.60;;;10.05;;
41687;SDS011;27371;42.686;23.362;2023-09-07T02:17:04;13.88;;;9.93;;
41687;SDS011;27371;42.686;23.362;2023-09-07T02:19:29;14.13;;;11.13;;
41687;SDS011;27371;42.686;23.362;2023-09-07T02:21:55;12.55;;;10.55;;
41687;SDS011;27371;42.686;23.362;2023-09-07T02:24:20;14.38;;;10.80;;
41687;SDS011;27371;42.686;23.362;2023-09-07T02:26:46;15.50;;;11.07;;
41687;SDS011;27371;42.686;23.362;2023-09-07T02:29:12;13.23;;;10.60;;
41687;SDS011;27371;42.686;23.362;2023-09-07T02:31:38;10.93;;;9.82;;
41687;SDS011;27371;42.686;23.362;2023-09-07T02:34:04;13.23;;;10.93;;
41687;SDS011;27371;42.686;23.362;2023-09-07T02:36:30;15.18;;;11.07;;
41687;SDS011;27371;42.686;23.362;2023-09-07T02:38:55;12.38;;;11.07;;
41687;SDS011;27371;42.686;23.362;2023-09-07T02:41:20;18.05;;;11.52;;
41687;SDS011;27371;42.686;23.362;2023-09-07T02:43:46;14.82;;;10.55;;
41687;SDS011;27371;42.686;23.362;2023-09-07T02:46:11;13.38;;;10.50;;
41687;SDS011;27371;42.686;23.362;2023-09-07T02:48:37;15.93;;;11.48;;
41687;SDS011;27371;42.686;23.362;2023-09-07T02:51:02;16.38;;;11.55;;
41687;SDS011;27371;42.686;23.362;2023-09-07T02:53:28;11.68;;;10.48;;
41687;SDS011;27371;42.686;23.362;2023-09-07T02:55:54;13.00;;;11.15;;
41687;SDS011;27371;42.686;23.362;2023-09-07T02:58:21;12.25;;;10.85;;
41687;SDS011;27371;42.686;23.362;2023-09-07T03:00:47;17.10;;;11.23;;
41687;SDS011;27371;42.686;23.362;2023-09-07T03:03:13;14.52;;;12.07;;
41687;SDS011;27371;42.686;23.362;2023-09-07T03:05:42;14.73;;;11.00;;
41687;SDS011;27371;42.686;23.362;2023-09-07T03:08:08;16.08;;;11.90;;
41687;SDS011;27371;42.686;23.362;2023-09-07T03:10:37;14.88;;;11.70;;
41687;SDS011;27371;42.686;23.362;2023-09-07T03:13:04;17.95;;;12.73;;
41687;SDS011;27371;42.686;23.362;2023-09-07T03:15:31;14.40;;;12.40;;
41687;SDS011;27371;42.686;23.362;2023-09-07T03:17:57;15.93;;;12.30;;
41687;SDS011;27371;42.686;23.362;2023-09-07T03:20:22;16.50;;;12.73;;
41687;SDS011;27371;42.686;23.362;2023-09-07T03:22:48;17.27;;;12.93;;
41687;SDS011;27371;42.686;23.362;2023-09-07T03:25:13;18.95;;;12.95;;
41687;SDS011;27371;42.686;23.362;2023-09-07T03:27:39;16.08;;;13.05;;
41687;SDS011;27371;42.686;23.362;2023-09-07T03:30:05;16.35;;;12.23;;
41687;SDS011;27371;42.686;23.362;2023-09-07T03:32:31;16.08;;;13.73;;
41687;SDS011;27371;42.686;23.362;2023-09-07T03:34:59;15.93;;;13.18;;
41687;SDS011;27371;42.686;23.362;2023-09-07T03:37:26;15.18;;;13.57;;
41687;SDS011;27371;42.686;23.362;2023-09-07T03:39:52;15.90;;;13.60;;
41687;SDS011;27371;42.686;23.362;2023-09-07T03:42:18;16.98;;;14.48;;
41687;SDS011;27371;42.686;23.362;2023-09-07T03:44:43;15.55;;;14.00;;
41687;SDS011;27371;42.686;23.362;2023-09-07T03:47:09;19.67;;;14.07;;
41687;SDS011;27371;42.686;23.362;2023-09-07T03:49:36;15.52;;;13.88;;
41687;SDS011;27371;42.686;23.362;2023-09-07T03:52:01;18.05;;;13.95;;
41687;SDS011;27371;42.686;23.362;2023-09-07T03:54:27;16.08;;;14.38;;
41687;SDS011;27371;42.686;23.362;2023-09-07T03:56:52;15.20;;;13.60;;
41687;SDS011;27371;42.686;23.362;2023-09-07T03:59:18;20.52;;;15.43;;
41687;SDS011;27371;42.686;23.362;2023-09-07T04:01:44;18.65;;;14.60;;
41687;SDS011;27371;42.686;23.362;2023-09-07T04:04:09;18.08;;;15.40;;
41687;SDS011;27371;42.686;23.362;2023-09-07T04:06:35;16.85;;;14.27;;
41687;SDS011;27371;42.686;23.362;2023-09-07T04:09:00;17.35;;;14.13;;
41687;SDS011;27371;42.686;23.362;2023-09-07T04:11:26;16.33;;;14.57;;
41687;SDS011;27371;42.686;23.362;2023-09-07T04:13:51;17.02;;;14.50;;
41687;SDS011;27371;42.686;23.362;2023-09-07T04:16:16;17.00;;;14.95;;
41687;SDS011;27371;42.686;23.362;2023-09-07T04:18:42;17.75;;;15.30;;
41687;SDS011;27371;42.686;23.362;2023-09-07T04:21:09;16.77;;;15.05;;
41687;SDS011;27371;42.686;23.362;2023-09-07T04:23:35;17.10;;;15.25;;
41687;SDS011;27371;42.686;23.362;2023-09-07T04:26:07;21.67;;;15.38;;
41687;SDS011;27371;42.686;23.362;2023-09-07T04:28:34;17.15;;;15.35;;
41687;SDS011;27371;42.686;23.362;2023-09-07T04:31:00;18.13;;;15.60;;
41687;SDS011;27371;42.686;23.362;2023-09-07T04:33:25;16.90;;;15.20;;
41687;SDS011;27371;42.686;23.362;2023-09-07T04:35:51;16.17;;;14.15;;
41687;SDS011;27371;42.686;23.362;2023-09-07T04:38:16;17.88;;;15.20;;
41687;SDS011;27371;42.686;23.362;2023-09-07T04:40:42;16.60;;;15.00;;
41687;SDS011;27371;42.686;23.362;2023-09-07T04:43:07;16.13;;;14.43;;
41687;SDS011;27371;42.686;23.362;2023-09-07T04:45:33;17.58;;;15.40;;
41687;SDS011;27371;42.686;23.362;2023-09-07T04:47:58;18.52;;;15.00;;
41687;SDS011;27371;42.686;23.362;2023-09-07T04:50:23;16.75;;;15.05;;
41687;SDS011;27371;42.686;23.362;2023-09-07T04:52:49;18.50;;;15.10;;
41687;SDS011;27371;42.686;23.362;2023-09-07T04:55:17;17.23;;;15.35;;
41687;SDS011;27371;42.686;23.362;2023-09-07T04:58:29;20.98;;;15.80;;
41687;SDS011;27371;42.686;23.362;2023-09-07T05:01:05;20.23;;;15.65;;
41687;SDS011;27371;42.686;23.362;2023-09-07T05:03:32;17.63;;;15.73;;
41687;SDS011;27371;42.686;23.362;2023-09-07T05:05:59;18.48;;;16.38;;
41687;SDS011;27371;42.686;23.362;2023-09-07T05:08:25;19.25;;;15.55;;
41687;SDS011;27371;42.686;23.362;2023-09-07T05:10:54;19.33;;;16.95;;
41687;SDS011;27371;42.686;23.362;2023-09-07T05:13:21;18.95;;;16.75;;
41687;SDS011;27371;42.686;23.362;2023-09-07T05:15:47;17.85;;;15.95;;
41687;SDS011;27371;42.686;23.362;2023-09-07T05:18:14;21.13;;;17.83;;
41687;SDS011;27371;42.686;23.362;2023-09-07T05:20:39;17.90;;;15.77;;
41687;SDS011;27371;42.686;23.362;2023-09-07T05:23:17;17.77;;;16.05;;
41687;SDS011;27371;42.686;23.362;2023-09-07T05:25:44;18.83;;;16.20;;
41687;SDS011;27371;42.686;23.362;2023-09-07T05:28:12;16.92;;;14.32;;
41687;SDS011;27371;42.686;23.362;2023-09-07T05:30:38;16.88;;;14.38;;
41687;SDS011;27371;42.686;23.362;2023-09-07T05:33:04;16.40;;;14.70;;
41687;SDS011;27371;42.686;23.362;2023-09-07T05:35:29;17.95;;;15.38;;
41687;SDS011;27371;42.686;23.362;2023-09-07T05:37:57;16.92;;;15.32;;
41687;SDS011;27371;42.686;23.362;2023-09-07T05:40:23;17.50;;;15.18;;
41687;SDS011;27371;42.686;23.362;2023-09-07T05:42:49;17.52;;;15.00;;
41687;SDS011;27371;42.686;23.362;2023-09-07T05:45:14;15.95;;;14.35;;
41687;SDS011;27371;42.686;23.362;2023-09-07T05:47:40;20.02;;;15.32;;
41687;SDS011;27371;42.686;23.362;2023-09-07T05:50:05;18.67;;;15.10;;
41687;SDS011;27371;42.686;23.362;2023-09-07T05:52:31;17.48;;;14.55;;
41687;SDS011;27371;42.686;23.362;2023-09-07T05:54:56;17.25;;;14.63;;
41687;SDS011;27371;42.686;23.362;2023-09-07T05:57:22;16.08;;;14.32;;
41687;SDS011;27371;42.686;23.362;2023-09-07T05:59:47;17.65;;;15.68;;
41687;SDS011;27371;42.686;23.362;2023-09-07T06:02:13;16.73;;;14.90;;
41687;SDS011;27371;42.686;23.362;2023-09-07T06:04:38;17.25;;;15.38;;
41687;SDS011;27371;42.686;23.362;2023-09-07T06:07:04;16.85;;;15.07;;
41687;SDS011;27371;42.686;23.362;2023-09-07T06:09:30;19.55;;;14.88;;
41687;SDS011;27371;42.686;23.362;2023-09-07T06:11:55;15.85;;;14.13;;
41687;SDS011;27371;42.686;23.362;2023-09-07T06:14:21;16.20;;;12.90;;
41687;SDS011;27371;42.686;23.362;2023-09-07T06:16:46;17.20;;;13.27;;
41687;SDS011;27371;42.686;23.362;2023-09-07T06:19:12;15.93;;;12.15;;
41687;SDS011;27371;42.686;23.362;2023-09-07T06:21:37;18.48;;;11.75;;
41687;SDS011;27371;42.686;23.362;2023-09-07T06:24:03;12.93;;;10.15;;
41687;SDS011;27371;42.686;23.362;2023-09-07T06:26:31;12.48;;;10.02;;
41687;SDS011;27371;42.686;23.362;2023-09-07T06:28:56;14.73;;;9.68;;
41687;SDS011;27371;42.686;23.362;2023-09-07T06:31:22;13.38;;;9.45;;
41687;SDS011;27371;42.686;23.362;2023-09-07T06:33:47;11.38;;;9.18;;
41687;SDS011;27371;42.686;23.362;2023-09-07T06:36:13;11.63;;;9.27;;
41687;SDS011;27371;42.686;23.362;2023-09-07T06:38:39;11.63;;;9.13;;
41687;SDS011;27371;42.686;23.362;2023-09-07T06:41:04;11.82;;;9.25;;
41687;SDS011;27371;42.686;23.362;2023-09-07T06:43:32;15.13;;;8.85;;
41687;SDS011;27371;42.686;23.362;2023-09-07T06:46:08;12.27;;;8.35;;
41687;SDS011;27371;42.686;23.362;2023-09-07T06:48:34;12.00;;;8.40;;
41687;SDS011;27371;42.686;23.362;2023-09-07T06:51:03;10.93;;;8.57;;
41687;SDS011;27371;42.686;23.362;2023-09-07T06:53:30;14.48;;;8.02;;
41687;SDS011;27371;42.686;23.362;2023-09-07T06:55:59;10.93;;;7.10;;
41687;SDS011;27371;42.686;23.362;2023-09-07T06:58:25;10.40;;;7.97;;
41687;SDS011;27371;42.686;23.362;2023-09-07T07:00:51;11.63;;;7.57;;
41687;SDS011;27371;42.686;23.362;2023-09-07T07:03:17;10.15;;;6.57;;
41687;SDS011;27371;42.686;23.362;2023-09-07T07:05:42;14.43;;;7.03;;
41687;SDS011;27371;42.686;23.362;2023-09-07T07:08:09;12.15;;;7.10;;
41687;SDS011;27371;42.686;23.362;2023-09-07T07:10:34;8.48;;;6.65;;
41687;SDS011;27371;42.686;23.362;2023-09-07T07:13:00;10.85;;;6.88;;
41687;SDS011;27371;42.686;23.362;2023-09-07T07:15:25;8.65;;;7.28;;
41687;SDS011;27371;42.686;23.362;2023-09-07T07:17:51;10.38;;;6.55;;
41687;SDS011;27371;42.686;23.362;2023-09-07T07:20:16;9.45;;;6.00;;
41687;SDS011;27371;42.686;23.362;2023-09-07T07:22:42;11.63;;;5.95;;
41687;SDS011;27371;42.686;23.362;2023-09-07T07:25:07;9.10;;;6.38;;
41687;SDS011;27371;42.686;23.362;2023-09-07T07:27:33;8.50;;;5.88;;
41687;SDS011;27371;42.686;23.362;2023-09-07T07:29:58;10.18;;;5.97;;
41687;SDS011;27371;42.686;23.362;2023-09-07T07:32:24;7.15;;;5.90;;
41687;SDS011;27371;42.686;23.362;2023-09-07T07:34:50;6.53;;;5.35;;
41687;SDS011;27371;42.686;23.362;2023-09-07T07:37:15;11.25;;;5.65;;
41687;SDS011;27371;42.686;23.362;2023-09-07T07:39:41;9.02;;;5.50;;
41687;SDS011;27371;42.686;23.362;2023-09-07T07:42:06;8.60;;;5.55;;
41687;SDS011;27371;42.686;23.362;2023-09-07T07:44:32;7.03;;;5.78;;
41687;SDS011;27371;42.686;23.362;2023-09-07T07:46:57;9.95;;;5.03;;
41687;SDS011;27371;42.686;23.362;2023-09-07T07:49:22;7.22;;;4.63;;
41687;SDS011;27371;42.686;23.362;2023-09-07T07:51:48;7.70;;;4.97;;
41687;SDS011;27371;42.686;23.362;2023-09-07T07:54:13;7.35;;;4.90;;
41687;SDS011;27371;42.686;23.362;2023-09-07T07:56:40;9.85;;;5.88;;
41687;SDS011;27371;42.686;23.362;2023-09-07T07:59:05;7.40;;;5.78;;
41687;SDS011;27371;42.686;23.362;2023-09-07T08:01:31;8.10;;;5.22;;
41687;SDS011;27371;42.686;23.362;2023-09-07T08:03:56;6.63;;;5.00;;
41687;SDS011;27371;42.686;23.362;2023-09-07T08:06:22;6.40;;;4.63;;
41687;SDS011;27371;42.686;23.362;2023-09-07T08:08:48;9.00;;;5.03;;
41687;SDS011;27371;42.686;23.362;2023-09-07T08:11:13;6.75;;;4.43;;
41687;SDS011;27371;42.686;23.362;2023-09-07T08:13:39;7.45;;;5.30;;
41687;SDS011;27371;42.686;23.362;2023-09-07T08:16:06;11.73;;;5.38;;
41687;SDS011;27371;42.686;23.362;2023-09-07T08:18:34;8.45;;;5.80;;
41687;SDS011;27371;42.686;23.362;2023-09-07T08:21:00;13.90;;;5.78;;
41687;SDS011;27371;42.686;23.362;2023-09-07T08:23:26;8.63;;;5.68;;
41687;SDS011;27371;42.686;23.362;2023-09-07T08:25:51;8.82;;;5.65;;
41687;SDS011;27371;42.686;23.362;2023-09-07T08:28:17;8.93;;;5.43;;
41687;SDS011;27371;42.686;23.362;2023-09-07T08:30:43;6.72;;;5.70;;
41687;SDS011;27371;42.686;23.362;2023-09-07T08:33:09;9.77;;;4.95;;
41687;SDS011;27371;42.686;23.362;2023-09-07T08:35:35;8.02;;;5.30;;
41687;SDS011;27371;42.686;23.362;2023-09-07T08:38:02;7.25;;;5.07;;
41687;SDS011;27371;42.686;23.362;2023-09-07T08:40:33;11.43;;;5.43;;
41687;SDS011;27371;42.686;23.362;2023-09-07T08:43:03;8.90;;;5.00;;
41687;SDS011;27371;42.686;23.362;2023-09-07T08:45:31;9.45;;;5.10;;
41687;SDS011;27371;42.686;23.362;2023-09-07T08:48:05;7.22;;;4.78;;
41687;SDS011;27371;42.686;23.362;2023-09-07T08:50:32;10.73;;;4.90;;
41687;SDS011;27371;42.686;23.362;2023-09-07T08:52:58;25.52;;;5.85;;
41687;SDS011;27371;42.686;23.362;2023-09-07T08:55:24;12.35;;;4.60;;
41687;SDS011;27371;42.686;23.362;2023-09-07T08:57:50;5.80;;;4.40;;
41687;SDS011;27371;42.686;23.362;2023-09-07T09:00:16;6.10;;;4.05;;
41687;SDS011;27371;42.686;23.362;2023-09-07T09:02:42;6.75;;;4.40;;
41687;SDS011;27371;42.686;23.362;2023-09-07T09:05:08;7.82;;;4.05;;
41687;SDS011;27371;42.686;23.362;2023-09-07T09:07:36;7.82;;;4.82;;
41687;SDS011;27371;42.686;23.362;2023-09-07T09:10:05;8.93;;;4.45;;
41687;SDS011;27371;42.686;23.362;2023-09-07T09:12:32;8.02;;;4.38;;
41687;SDS011;27371;42.686;23.362;2023-09-07T09:14:58;5.20;;;4.30;;
41687;SDS011;27371;42.686;23.362;2023-09-07T09:17:25;6.40;;;4.18;;
41687;SDS011;27371;42.686;23.362;2023-09-07T09:19:51;8.20;;;4.28;;
41687;SDS011;27371;42.686;23.362;2023-09-07T09:22:16;8.35;;;4.45;;
41687;SDS011;27371;42.686;23.362;2023-09-07T09:24:42;6.85;;;4.55;;
41687;SDS011;27371;42.686;23.362;2023-09-07T09:27:07;5.28;;;4.07;;
41687;SDS011;27371;42.686;23.362;2023-09-07T09:29:33;8.50;;;4.45;;
41687;SDS011;27371;42.686;23.362;2023-09-07T09:32:00;8.35;;;4.07;;
41687;SDS011;27371;42.686;23.362;2023-09-07T09:34:33;5.97;;;3.70;;
41687;SDS011;27371;42.686;23.362;2023-09-07T09:36:59;10.52;;;4.50;;
41687;SDS011;27371;42.686;23.362;2023-09-07T09:39:26;6.07;;;4.03;;
41687;SDS011;27371;42.686;23.362;2023-09-07T09:41:52;7.05;;;4.10;;
41687;SDS011;27371;42.686;23.362;2023-09-07T09:44:19;8.55;;;5.03;;
41687;SDS011;27371;42.686;23.362;2023-09-07T09:46:46;5.43;;;4.00;;
41687;SDS011;27371;42.686;23.362;2023-09-07T09:49:12;6.55;;;4.00;;
41687;SDS011;27371;42.686;23.362;2023-09-07T09:51:40;5.07;;;3.85;;
41687;SDS011;27371;42.686;23.362;2023-09-07T09:54:07;6.43;;;3.90;;
41687;SDS011;27371;42.686;23.362;2023-09-07T09:56:34;8.52;;;3.90;;
41687;SDS011;27371;42.686;23.362;2023-09-07T09:58:59;5.28;;;4.10;;
41687;SDS011;27371;42.686;23.362;2023-09-07T10:01:25;7.90;;;4.07;;
41687;SDS011;27371;42.686;23.362;2023-09-07T10:03:51;7.30;;;4.03;;
41687;SDS011;27371;42.686;23.362;2023-09-07T10:06:29;8.30;;;3.90;;
41687;SDS011;27371;42.686;23.362;2023-09-07T10:09:06;6.75;;;3.60;;
41687;SDS011;27371;42.686;23.362;2023-09-07T10:11:33;6.43;;;3.67;;
41687;SDS011;27371;42.686;23.362;2023-09-07T10:14:02;5.55;;;4.03;;
41687;SDS011;27371;42.686;23.362;2023-09-07T10:16:54;7.57;;;3.55;;
41687;SDS011;27371;42.686;23.362;2023-09-07T10:19:46;5.75;;;3.50;;
41687;SDS011;27371;42.686;23.362;2023-09-07T10:22:30;6.40;;;3.67;;
41687;SDS011;27371;42.686;23.362;2023-09-07T10:25:04;8.88;;;3.72;;
41687;SDS011;27371;42.686;23.362;2023-09-07T10:27:43;4.63;;;3.55;;
41687;SDS011;27371;42.686;23.362;2023-09-07T10:30:09;6.15;;;3.45;;
41687;SDS011;27371;42.686;23.362;2023-09-07T10:32:40;4.55;;;3.90;;
41687;SDS011;27371;42.686;23.362;2023-09-07T10:35:16;5.07;;;3.50;;
41687;SDS011;27371;42.686;23.362;2023-09-07T10:37:44;6.97;;;3.83;;
41687;SDS011;27371;42.686;23.362;2023-09-07T10:40:11;5.68;;;3.55;;
41687;SDS011;27371;42.686;23.362;2023-09-07T10:42:39;6.50;;;4.03;;
41687;SDS011;27371;42.686;23.362;2023-09-07T10:45:11;7.32;;;4.15;;
41687;SDS011;27371;42.686;23.362;2023-09-07T10:47:40;6.07;;;3.50;;
41687;SDS011;27371;42.686;23.362;2023-09-07T10:50:11;5.10;;;3.55;;
41687;SDS011;27371;42.686;23.362;2023-09-07T10:52:38;9.15;;;3.58;;
41687;SDS011;27371;42.686;23.362;2023-09-07T10:55:10;6.35;;;3.92;;
41687;SDS011;27371;42.686;23.362;2023-09-07T10:57:43;4.00;;;3.53;;
41687;SDS011;27371;42.686;23.362;2023-09-07T11:00:10;6.55;;;3.67;;
41687;SDS011;27371;42.686;23.362;2023-09-07T11:02:42;5.85;;;3.78;;
41687;SDS011;27371;42.686;23.362;2023-09-07T11:05:08;7.47;;;3.88;;
41687;SDS011;27371;42.686;23.362;2023-09-07T11:07:35;6.57;;;3.60;;
41687;SDS011;27371;42.686;23.362;2023-09-07T11:10:04;4.13;;;3.55;;
41687;SDS011;27371;42.686;23.362;2023-09-07T11:12:35;6.63;;;3.50;;
41687;SDS011;27371;42.686;23.362;2023-09-07T11:15:03;7.43;;;3.72;;
41687;SDS011;27371;42.686;23.362;2023-09-07T11:17:29;4.85;;;3.00;;
41687;SDS011;27371;42.686;23.362;2023-09-07T11:19:55;6.30;;;3.65;;
41687;SDS011;27371;42.686;23.362;2023-09-07T11:22:20;7.40;;;3.38;;
41687;SDS011;27371;42.686;23.362;2023-09-07T11:24:47;6.68;;;3.30;;
41687;SDS011;27371;42.686;23.362;2023-09-07T11:27:12;5.20;;;3.55;;
41687;SDS011;27371;42.686;23.362;2023-09-07T11:29:38;5.07;;;3.00;;
41687;SDS011;27371;42.686;23.362;2023-09-07T11:32:07;7.03;;;4.00;;
41687;SDS011;27371;42.686;23.362;2023-09-07T11:34:34;5.57;;;3.35;;
41687;SDS011;27371;42.686;23.362;2023-09-07T11:37:02;4.95;;;3.10;;
41687;SDS011;27371;42.686;23.362;2023-09-07T11:39:28;7.22;;;3.20;;
41687;SDS011;27371;42.686;23.362;2023-09-07T11:41:54;7.13;;;3.58;;
41687;SDS011;27371;42.686;23.362;2023-09-07T11:44:20;4.10;;;2.95;;
41687;SDS011;27371;42.686;23.362;2023-09-07T11:46:45;5.43;;;2.80;;
41687;SDS011;27371;42.686;23.362;2023-09-07T11:49:11;5.00;;;2.90;;
41687;SDS011;27371;42.686;23.362;2023-09-07T11:51:37;5.78;;;3.15;;
41687;SDS011;27371;42.686;23.362;2023-09-07T11:54:02;7.78;;;3.15;;
41687;SDS011;27371;42.686;23.362;2023-09-07T11:56:29;6.45;;;3.33;;
41687;SDS011;27371;42.686;23.362;2023-09-07T11:58:55;6.93;;;3.05;;
41687;SDS011;27371;42.686;23.362;2023-09-07T12:01:21;7.25;;;3.20;;
41687;SDS011;27371;42.686;23.362;2023-09-07T12:03:46;3.22;;;2.88;;
41687;SDS011;27371;42.686;23.362;2023-09-07T12:06:12;6.38;;;3.47;;
41687;SDS011;27371;42.686;23.362;2023-09-07T12:08:41;5.85;;;3.38;;
41687;SDS011;27371;42.686;23.362;2023-09-07T12:11:25;7.10;;;3.20;;
41687;SDS011;27371;42.686;23.362;2023-09-07T12:13:51;5.57;;;2.90;;
41687;SDS011;27371;42.686;23.362;2023-09-07T12:16:16;7.47;;;2.90;;
41687;SDS011;27371;42.686;23.362;2023-09-07T12:18:42;4.28;;;2.90;;
41687;SDS011;27371;42.686;23.362;2023-09-07T12:21:07;3.95;;;2.70;;
41687;SDS011;27371;42.686;23.362;2023-09-07T12:23:33;3.70;;;2.63;;
41687;SDS011;27371;42.686;23.362;2023-09-07T12:25:59;4.63;;;2.90;;
41687;SDS011;27371;42.686;23.362;2023-09-07T12:28:26;9.07;;;3.00;;
41687;SDS011;27371;42.686;23.362;2023-09-07T12:30:51;7.40;;;2.92;;
41687;SDS011;27371;42.686;23.362;2023-09-07T12:33:16;5.63;;;2.70;;
41687;SDS011;27371;42.686;23.362;2023-09-07T12:35:42;6.70;;;3.08;;
41687;SDS011;27371;42.686;23.362;2023-09-07T12:38:29;5.63;;;2.88;;
41687;SDS011;27371;42.686;23.362;2023-09-07T12:40:56;6.13;;;2.92;;
41687;SDS011;27371;42.686;23.362;2023-09-07T12:43:21;3.50;;;2.60;;
41687;SDS011;27371;42.686;23.362;2023-09-07T12:45:49;5.00;;;3.00;;
41687;SDS011;27371;42.686;23.362;2023-09-07T12:48:15;5.13;;;2.72;;
41687;SDS011;27371;42.686;23.362;2023-09-07T12:50:41;7.53;;;3.03;;
41687;SDS011;27371;42.686;23.362;2023-09-07T12:53:08;5.35;;;2.85;;
41687;SDS011;27371;42.686;23.362;2023-09-07T12:55:33;6.82;;;3.30;;
41687;SDS011;27371;42.686;23.362;2023-09-07T12:57:59;7.35;;;3.08;;
41687;SDS011;27371;42.686;23.362;2023-09-07T13:00:25;6.72;;;3.15;;
41687;SDS011;27371;42.686;23.362;2023-09-07T13:02:51;9.30;;;3.30;;
41687;SDS011;27371;42.686;23.362;2023-09-07T13:05:16;5.03;;;2.80;;
41687;SDS011;27371;42.686;23.362;2023-09-07T13:07:54;4.75;;;3.03;;
41687;SDS011;27371;42.686;23.362;2023-09-07T13:10:28;7.28;;;3.00;;
41687;SDS011;27371;42.686;23.362;2023-09-07T13:12:54;5.75;;;3.00;;
41687;SDS011;27371;42.686;23.362;2023-09-07T13:15:20;4.22;;;2.60;;
41687;SDS011;27371;42.686;23.362;2023-09-07T13:17:45;10.23;;;2.83;;
41687;SDS011;27371;42.686;23.362;2023-09-07T13:20:11;5.50;;;3.38;;
41687;SDS011;27371;42.686;23.362;2023-09-07T13:22:37;5.55;;;3.35;;
41687;SDS011;27371;42.686;23.362;2023-09-07T13:25:03;7.05;;;2.97;;
41687;SDS011;27371;42.686;23.362;2023-09-07T13:27:30;5.90;;;3.08;;
41687;SDS011;27371;42.686;23.362;2023-09-07T13:29:56;6.10;;;3.28;;
41687;SDS011;27371;42.686;23.362;2023-09-07T13:32:24;6.45;;;3.05;;
41687;SDS011;27371;42.686;23.362;2023-09-07T13:34:52;3.92;;;3.00;;
41687;SDS011;27371;42.686;23.362;2023-09-07T13:37:18;5.53;;;3.00;;
41687;SDS011;27371;42.686;23.362;2023-09-07T13:39:43;5.53;;;2.65;;
41687;SDS011;27371;42.686;23.362;2023-09-07T13:42:09;5.05;;;2.83;;
41687;SDS011;27371;42.686;23.362;2023-09-07T13:44:37;7.10;;;2.88;;
41687;SDS011;27371;42.686;23.362;2023-09-07T13:47:03;10.18;;;2.78;;
41687;SDS011;27371;42.686;23.362;2023-09-07T13:49:29;6.70;;;2.70;;
41687;SDS011;27371;42.686;23.362;2023-09-07T13:51:54;6.60;;;3.22;;
41687;SDS011;27371;42.686;23.362;2023-09-07T13:54:19;5.93;;;2.78;;
41687;SDS011;27371;42.686;23.362;2023-09-07T13:56:45;6.10;;;2.90;;
41687;SDS011;27371;42.686;23.362;2023-09-07T13:59:12;6.32;;;3.10;;
41687;SDS011;27371;42.686;23.362;2023-09-07T14:01:37;6.95;;;2.90;;
41687;SDS011;27371;42.686;23.362;2023-09-07T14:04:03;6.10;;;3.28;;
41687;SDS011;27371;42.686;23.362;2023-09-07T14:06:31;5.40;;;2.80;;
41687;SDS011;27371;42.686;23.362;2023-09-07T14:08:57;6.85;;;3.63;;
41687;SDS011;27371;42.686;23.362;2023-09-07T14:11:22;6.53;;;3.03;;
41687;SDS011;27371;42.686;23.362;2023-09-07T14:13:48;5.25;;;3.30;;
41687;SDS011;27371;42.686;23.362;2023-09-07T14:16:17;6.57;;;3.20;;
41687;SDS011;27371;42.686;23.362;2023-09-07T14:18:46;4.40;;;2.92;;
41687;SDS011;27371;42.686;23.362;2023-09-07T14:21:15;5.65;;;2.65;;
41687;SDS011;27371;42.686;23.362;2023-09-07T14:23:41;6.00;;;3.10;;
41687;SDS011;27371;42.686;23.362;2023-09-07T14:26:08;4.63;;;3.00;;